Time;durP1;ratioP1;P1;durP2;ratioP2;P2;SDS_P1;SDS_P2;PMS_P1;PMS_P2;Temp;Humidity;BMP_temperature;BMP_pressure;BME280_temperature;BME280_humidity;BME280_pressure;Samples;Min_cycle;Max_cycle;Signal;HPM_P1;HPM_P2
2023/01/21 00:01:46;;;;;;;48.47;28.10;;;-0.20;99.90;;;;;;4986486;28;20093;-62
2023/01/21 00:04:12;;;;;;;46.75;27.30;;;-0.70;99.90;;;;;;4986830;28;20425;-61
2023/01/21 00:06:37;;;;;;;41.92;24.40;;;1.10;99.90;;;;;;4987456;28;20034;-61
2023/01/21 00:09:03;;;;;;;44.80;26.02;;;-0.80;99.90;;;;;;4986110;28;20082;-61
2023/01/21 00:11:29;;;;;;;42.78;25.38;;;0.30;99.90;;;;;;4986893;28;20081;-61
2023/01/21 00:13:57;;;;;;;43.38;25.00;;;-0.80;99.90;;;;;;4987347;28;20054;-61
2023/01/21 00:16:22;;;;;;;42.95;25.45;;;-0.60;99.90;;;;;;4986218;28;20038;-61
2023/01/21 00:18:48;;;;;;;45.25;26.85;;;1.60;99.90;;;;;;4986194;28;20054;-61
2023/01/21 00:21:14;;;;;;;48.28;28.17;;;-0.60;99.90;;;;;;4986974;28;20042;-62
2023/01/21 00:23:40;;;;;;;44.88;26.92;;;1.60;99.90;;;;;;4985609;28;20133;-62
2023/01/21 00:26:09;;;;;;;45.50;28.25;;;-0.20;99.90;;;;;;4987505;28;20121;-61
2023/01/21 00:28:36;;;;;;;48.72;29.20;;;-0.60;99.90;;;;;;4987165;28;20379;-62
2023/01/21 00:31:04;;;;;;;48.03;27.75;;;0.00;99.90;;;;;;4986082;28;20411;-61
2023/01/21 00:33:30;;;;;;;48.63;28.08;;;-0.60;99.90;;;;;;4987097;28;20046;-61
2023/01/21 00:35:58;;;;;;;47.28;27.50;;;-0.60;99.90;;;;;;4985490;28;20088;-62
2023/01/21 00:38:24;;;;;;;48.67;28.70;;;0.10;99.90;;;;;;4987244;28;20042;-61
2023/01/21 00:40:49;;;;;;;49.30;28.45;;;-0.10;99.90;;;;;;4987043;28;20030;-62
2023/01/21 00:43:15;;;;;;;46.08;27.02;;;-0.50;99.90;;;;;;4986720;28;20046;-62
2023/01/21 00:45:41;;;;;;;49.85;26.88;;;0.60;99.90;;;;;;4986492;28;20038;-61
2023/01/21 00:48:06;;;;;;;51.33;28.35;;;-0.40;99.90;;;;;;4986974;28;20042;-60
2023/01/21 00:50:32;;;;;;;42.70;25.10;;;-0.70;99.90;;;;;;4986838;28;20375;-62
2023/01/21 00:52:58;;;;;;;50.53;28.55;;;-0.70;99.90;;;;;;4986913;28;20038;-61
2023/01/21 00:55:23;;;;;;;49.30;27.95;;;0.80;99.90;;;;;;4986061;28;20065;-62
2023/01/21 00:57:51;;;;;;;44.42;25.33;;;-0.80;99.90;;;;;;4987158;28;20048;-61
2023/01/21 01:00:18;;;;;;;46.78;25.60;;;-0.80;99.90;;;;;;4985265;28;20050;-62
2023/01/21 01:02:44;;;;;;;44.20;26.42;;;-0.80;99.90;;;;;;4988569;28;20470;-61
2023/01/21 01:05:09;;;;;;;47.58;27.27;;;-0.10;99.90;;;;;;4990370;28;20050;-62
2023/01/21 01:07:35;;;;;;;47.83;27.33;;;0.10;99.90;;;;;;4990349;28;20085;-61
2023/01/21 01:10:01;;;;;;;46.20;25.60;;;0.80;99.90;;;;;;4989625;28;20038;-62
2023/01/21 01:12:28;;;;;;;48.92;26.38;;;-0.60;99.90;;;;;;4990045;28;20038;-61
2023/01/21 01:14:53;;;;;;;47.03;26.33;;;-0.50;99.90;;;;;;4989733;28;20050;-61
2023/01/21 01:17:19;;;;;;;48.50;27.67;;;-0.20;99.90;;;;;;4989306;28;20122;-61
2023/01/21 01:19:45;;;;;;;49.50;26.23;;;0.00;99.90;;;;;;4988608;28;20046;-62
2023/01/21 01:22:10;;;;;;;50.28;27.45;;;0.00;99.90;;;;;;4989897;28;20125;-62
2023/01/21 01:24:36;;;;;;;45.38;26.17;;;-0.40;99.90;;;;;;4990314;28;20078;-62
2023/01/21 01:27:01;;;;;;;47.70;27.40;;;-0.20;99.90;;;;;;4989913;28;20454;-62
2023/01/21 01:29:27;;;;;;;49.03;27.05;;;0.10;99.90;;;;;;4989649;28;20496;-62
2023/01/21 01:31:53;;;;;;;49.88;26.65;;;0.00;99.90;;;;;;4989035;28;20050;-61
2023/01/21 01:34:18;;;;;;;45.20;26.20;;;0.00;99.90;;;;;;4989637;28;20058;-62
2023/01/21 01:36:44;;;;;;;47.25;27.00;;;-0.10;99.90;;;;;;4989651;28;20046;-62
2023/01/21 01:39:10;;;;;;;46.70;26.90;;;0.80;99.90;;;;;;4989011;28;20050;-62
2023/01/21 01:41:36;;;;;;;48.25;26.92;;;-0.30;99.90;;;;;;4988652;28;20053;-62
2023/01/21 01:44:04;;;;;;;45.78;25.95;;;-0.10;99.90;;;;;;4989615;28;20042;-61
2023/01/21 01:46:35;;;;;;;50.78;27.52;;;-0.30;99.90;;;;;;4989023;28;20096;-61
2023/01/21 01:49:14;;;;;;;49.28;26.38;;;-0.70;99.90;;;;;;4990033;28;20041;-62
2023/01/21 01:51:45;;;;;;;50.03;26.83;;;-0.80;99.90;;;;;;4989768;28;20051;-60
2023/01/21 01:54:17;;;;;;;42.35;25.90;;;-0.40;99.90;;;;;;4988850;28;20046;-61
2023/01/21 01:56:45;;;;;;;45.92;27.52;;;-0.30;99.90;;;;;;4988970;28;20090;-62
2023/01/21 01:59:11;;;;;;;46.40;26.65;;;-0.60;99.90;;;;;;4989727;28;20042;-61
2023/01/21 02:01:38;;;;;;;51.95;26.98;;;-0.30;99.90;;;;;;4988573;28;20462;-62
2023/01/21 02:04:09;;;;;;;47.30;25.52;;;-0.40;99.90;;;;;;4989238;28;20396;-61
2023/01/21 02:06:35;;;;;;;48.80;27.42;;;-0.90;99.90;;;;;;4988132;28;20054;-61
2023/01/21 02:09:01;;;;;;;48.58;26.17;;;0.30;99.90;;;;;;5005688;28;20602;-62
2023/01/21 02:11:26;;;;;;;49.72;26.42;;;-0.30;99.90;;;;;;5008647;28;20057;-61
2023/01/21 02:13:56;;;;;;;49.42;27.65;;;-0.70;99.90;;;;;;5008240;28;20482;-61
2023/01/21 02:16:22;;;;;;;54.47;26.52;;;-1.10;99.90;;;;;;5007515;28;20037;-61
2023/01/21 02:19:30;;;;;;;46.55;25.83;;;-0.70;99.90;;;;;;5008588;28;20046;-62
2023/01/21 02:22:31;;;;;;;48.05;25.98;;;-0.40;99.90;;;;;;5008389;28;20053;-62
2023/01/21 02:25:24;;;;;;;46.95;26.27;;;-1.10;99.90;;;;;;5008578;28;20096;-62
2023/01/21 02:28:11;;;;;;;42.10;22.52;;;-0.50;99.90;;;;;;5007925;28;20046;-61
2023/01/21 02:31:07;;;;;;;47.58;26.95;;;0.60;99.90;;;;;;5007311;28;20121;-62
2023/01/21 02:33:45;;;;;;;44.83;24.27;;;-1.20;99.90;;;;;;5006537;28;20054;-62
2023/01/21 02:36:27;;;;;;;51.17;26.95;;;-1.20;99.90;;;;;;5006884;28;20060;-61
2023/01/21 02:39:20;;;;;;;57.50;29.65;;;-0.60;99.90;;;;;;5008180;28;20049;-61
2023/01/21 02:41:58;;;;;;;55.25;28.30;;;-0.50;99.90;;;;;;5008033;28;20521;-62
2023/01/21 02:44:31;;;;;;;52.70;27.67;;;-1.20;99.90;;;;;;5007966;28;20092;-62
2023/01/21 02:47:17;;;;;;;56.53;28.23;;;-1.30;99.90;;;;;;5007175;28;20046;-61
2023/01/21 02:49:59;;;;;;;55.95;28.85;;;-1.00;99.90;;;;;;5008373;28;20086;-61
2023/01/21 02:52:25;;;;;;;55.55;28.38;;;-0.60;99.90;;;;;;5007647;28;20550;-61
2023/01/21 02:54:57;;;;;;;59.63;30.70;;;1.10;99.90;;;;;;5008004;28;20104;-62
2023/01/21 02:57:42;;;;;;;62.53;29.13;;;-0.60;99.90;;;;;;5006953;28;20108;-62
2023/01/21 03:00:14;;;;;;;66.72;30.92;;;-0.90;99.90;;;;;;5007339;28;20037;-62
2023/01/21 03:03:10;;;;;;;54.17;27.63;;;-1.20;99.90;;;;;;4995317;28;20440;-60
2023/01/21 03:05:36;;;;;;;57.60;28.48;;;-0.50;99.90;;;;;;4987030;28;20050;-64
2023/01/21 03:08:16;;;;;;;58.70;30.67;;;-0.30;99.90;;;;;;4987112;28;20614;-62
2023/01/21 03:10:59;;;;;;;59.70;28.48;;;-1.00;99.90;;;;;;4987622;28;20411;-62
2023/01/21 03:19:12;;;;;;;63.03;30.90;;;-1.10;99.90;;;;;;4987515;28;20057;-61
2023/01/21 03:21:39;;;;;;;65.10;31.45;;;-0.90;99.90;;;;;;4987581;28;20121;-61
2023/01/21 03:24:07;;;;;;;62.30;31.10;;;1.30;99.90;;;;;;4986674;28;20510;-62
2023/01/21 03:26:38;;;;;;;68.95;32.33;;;-1.00;99.90;;;;;;4987989;28;20073;-61
2023/01/21 03:29:19;;;;;;;64.88;32.25;;;0.80;99.90;;;;;;4986984;28;20050;-61
2023/01/21 03:31:50;;;;;;;67.47;30.80;;;-0.80;99.90;;;;;;4987127;28;20061;-61
2023/01/21 03:34:18;;;;;;;65.65;31.23;;;-0.90;99.90;;;;;;4986290;28;20372;-61
2023/01/21 03:36:52;;;;;;;62.83;30.75;;;-0.70;99.90;;;;;;4986837;28;20038;-61
2023/01/21 03:39:27;;;;;;;60.10;28.45;;;-1.20;99.90;;;;;;4987122;28;20403;-61
2023/01/21 03:41:53;;;;;;;57.13;28.63;;;-0.40;99.90;;;;;;4987099;28;20050;-62
2023/01/21 03:44:19;;;;;;;61.17;29.65;;;-0.50;99.90;;;;;;4987179;28;20053;-62
2023/01/21 03:47:00;;;;;;;56.85;27.27;;;-0.40;99.90;;;;;;4987060;28;20117;-61
2023/01/21 03:49:40;;;;;;;56.00;29.70;;;1.60;99.90;;;;;;4986766;28;20036;-62
2023/01/21 03:52:07;;;;;;;59.83;28.20;;;-0.60;99.90;;;;;;4987374;28;20068;-62
2023/01/21 03:54:33;;;;;;;60.70;29.05;;;-0.60;99.90;;;;;;4987131;28;20081;-61
2023/01/21 03:56:59;;;;;;;64.10;30.17;;;-0.80;99.90;;;;;;4987330;28;20097;-61
2023/01/21 03:59:25;;;;;;;63.20;31.58;;;-1.10;99.90;;;;;;4987329;28;20054;-61
2023/01/21 04:01:50;;;;;;;60.58;29.20;;;-0.10;99.90;;;;;;4986310;28;20051;-59
2023/01/21 04:04:16;;;;;;;64.03;29.80;;;-0.80;99.90;;;;;;4987861;28;20050;-61
2023/01/21 04:06:41;;;;;;;61.72;30.63;;;-1.10;99.90;;;;;;4987910;28;20093;-62
2023/01/21 04:09:09;;;;;;;59.30;29.38;;;0.50;99.90;;;;;;4987555;28;20085;-62
2023/01/21 04:11:34;;;;;;;57.63;28.95;;;-0.40;99.90;;;;;;4986882;28;20541;-61
2023/01/21 04:14:00;;;;;;;57.90;29.70;;;-1.00;99.90;;;;;;4986136;28;20034;-62
2023/01/21 04:16:25;;;;;;;60.22;30.42;;;-0.20;99.90;;;;;;4986745;28;20054;-62
2023/01/21 04:18:51;;;;;;;58.13;29.45;;;-0.10;99.90;;;;;;4986902;28;20042;-62
2023/01/21 04:21:17;;;;;;;61.95;29.05;;;0.40;99.90;;;;;;4987711;28;20121;-62
2023/01/21 04:23:42;;;;;;;68.68;32.75;;;0.00;99.90;;;;;;4987004;28;20042;-62
2023/01/21 04:26:08;;;;;;;65.20;30.27;;;-1.00;99.90;;;;;;4987270;28;20848;-62
2023/01/21 04:28:34;;;;;;;66.07;31.73;;;-0.30;99.90;;;;;;4986643;28;20042;-62
2023/01/21 04:30:59;;;;;;;65.10;29.77;;;-1.00;99.90;;;;;;4986161;28;20082;-62
2023/01/21 04:33:25;;;;;;;65.35;31.40;;;-0.60;99.90;;;;;;4985461;28;20232;-61
2023/01/21 04:35:51;;;;;;;61.17;30.45;;;-0.80;99.90;;;;;;4987860;28;20115;-61
2023/01/21 04:38:17;;;;;;;63.17;31.58;;;-0.70;99.90;;;;;;4991077;28;20061;-62
2023/01/21 04:40:42;;;;;;;62.58;29.35;;;-0.40;99.90;;;;;;4990835;28;20042;-61
2023/01/21 04:43:08;;;;;;;57.65;29.77;;;-1.00;99.90;;;;;;4988563;28;20487;-61
2023/01/21 04:45:34;;;;;;;64.18;31.70;;;0.40;99.90;;;;;;4989601;28;20081;-61
2023/01/21 04:47:59;;;;;;;58.40;29.20;;;1.20;99.90;;;;;;4990736;28;20042;-61
2023/01/21 04:50:25;;;;;;;59.78;30.27;;;-0.50;99.90;;;;;;4990359;28;20097;-62
2023/01/21 04:52:51;;;;;;;59.85;29.42;;;0.60;99.90;;;;;;4989993;28;20050;-62
2023/01/21 04:55:17;;;;;;;61.42;29.60;;;0.10;99.90;;;;;;4990868;28;20093;-60
2023/01/21 04:57:42;;;;;;;63.35;30.77;;;-0.60;99.90;;;;;;4990063;28;20042;-62
2023/01/21 05:00:08;;;;;;;61.38;29.98;;;-0.20;99.90;;;;;;4989169;28;20074;-62
2023/01/21 05:02:34;;;;;;;52.40;27.65;;;-0.30;99.90;;;;;;4990201;28;20430;-62
2023/01/21 05:05:00;;;;;;;57.47;29.85;;;0.50;99.90;;;;;;4990090;28;20046;-62
2023/01/21 05:07:27;;;;;;;58.15;30.55;;;-0.10;99.90;;;;;;4990063;28;20141;-62
2023/01/21 05:09:52;;;;;;;57.60;28.90;;;-0.40;99.90;;;;;;4989857;28;20050;-61
2023/01/21 05:12:18;;;;;;;55.55;28.45;;;0.70;99.90;;;;;;4990543;28;20089;-61
2023/01/21 05:14:44;;;;;;;56.85;28.92;;;0.10;99.90;;;;;;4989842;28;20115;-62
2023/01/21 05:17:09;;;;;;;57.55;30.30;;;-0.80;99.90;;;;;;4988834;28;20058;-62
2023/01/21 05:19:35;;;;;;;59.72;29.73;;;0.00;99.90;;;;;;4989619;28;20042;-61
2023/01/21 05:22:01;;;;;;;62.90;31.02;;;0.00;99.90;;;;;;4990020;28;20042;-62
2023/01/21 05:24:26;;;;;;;60.90;30.85;;;0.00;99.90;;;;;;4988497;28;20046;-62
2023/01/21 05:26:52;;;;;;;59.42;29.48;;;2.00;99.90;;;;;;4990281;28;20053;-59
2023/01/21 05:29:18;;;;;;;65.07;30.60;;;-0.50;99.90;;;;;;4989770;28;20034;-62
2023/01/21 05:31:43;;;;;;;63.60;31.17;;;-0.30;99.90;;;;;;4989048;28;20073;-61
2023/01/21 05:34:10;;;;;;;61.88;32.03;;;-0.20;99.90;;;;;;4989871;28;20121;-61
2023/01/21 05:36:36;;;;;;;66.45;31.85;;;1.20;99.90;;;;;;4988103;28;20047;-61
2023/01/21 05:39:02;;;;;;;64.85;30.65;;;0.30;99.90;;;;;;4989423;28;20049;-62
2023/01/21 05:41:28;;;;;;;63.35;31.67;;;0.10;99.90;;;;;;4989018;28;20042;-62
2023/01/21 05:43:53;;;;;;;58.08;29.30;;;-0.80;99.90;;;;;;4989203;28;20046;-60
2023/01/21 05:46:19;;;;;;;62.13;30.90;;;-0.60;99.90;;;;;;4989494;28;20034;-62
2023/01/21 05:48:45;;;;;;;61.58;32.42;;;-0.40;99.90;;;;;;4988227;28;20101;-61
2023/01/21 05:51:10;;;;;;;65.45;32.33;;;0.00;99.90;;;;;;4989227;28;20089;-62
2023/01/21 05:53:36;;;;;;;65.32;32.95;;;0.00;99.90;;;;;;4988986;28;20049;-62
2023/01/21 05:56:02;;;;;;;64.43;32.75;;;-0.60;99.90;;;;;;4988534;28;20089;-61
2023/01/21 05:58:28;;;;;;;60.70;31.10;;;-0.80;99.90;;;;;;4988028;28;20100;-60
2023/01/21 06:00:55;;;;;;;66.47;33.00;;;0.00;99.90;;;;;;4988759;28;20034;-61
2023/01/21 06:03:21;;;;;;;62.67;31.15;;;-0.70;99.90;;;;;;4990010;28;20415;-62
2023/01/21 06:05:48;;;;;;;62.30;30.30;;;0.10;99.90;;;;;;4988515;28;20066;-61
2023/01/21 06:08:14;;;;;;;64.55;32.20;;;-0.20;99.90;;;;;;4989066;28;20046;-59
2023/01/21 06:10:41;;;;;;;57.65;29.08;;;-0.20;99.90;;;;;;4989015;28;20472;-61
2023/01/21 06:13:09;;;;;;;60.88;30.02;;;-0.50;99.90;;;;;;4988945;28;20047;-59
2023/01/21 06:15:34;;;;;;;61.58;30.85;;;-0.20;99.90;;;;;;4988021;28;20042;-61
2023/01/21 06:18:00;;;;;;;63.25;30.38;;;0.20;99.90;;;;;;4988602;28;20100;-61
2023/01/21 06:20:29;;;;;;;62.20;31.45;;;1.90;99.90;;;;;;4988320;28;20166;-62
2023/01/21 06:22:55;;;;;;;60.67;31.27;;;0.20;99.90;;;;;;4989349;28;20047;-62
2023/01/21 06:25:21;;;;;;;62.10;31.38;;;0.30;99.90;;;;;;4987743;28;20049;-62
2023/01/21 06:27:47;;;;;;;60.30;30.95;;;-0.30;99.90;;;;;;4988552;28;20050;-61
2023/01/21 06:30:13;;;;;;;60.75;30.50;;;-0.70;99.90;;;;;;4987932;28;20546;-62
2023/01/21 06:32:38;;;;;;;62.78;31.80;;;-0.60;99.90;;;;;;4988711;28;20089;-61
2023/01/21 06:35:04;;;;;;;58.85;30.83;;;0.30;99.90;;;;;;4970998;28;20043;-61
2023/01/21 06:37:30;;;;;;;57.28;29.55;;;0.10;99.90;;;;;;4988225;28;20046;-62
2023/01/21 06:39:56;;;;;;;59.25;29.65;;;1.60;99.90;;;;;;4987104;28;20126;-61
2023/01/21 06:42:21;;;;;;;62.13;31.33;;;0.00;99.90;;;;;;4988717;28;20050;-62
2023/01/21 06:44:47;;;;;;;59.63;30.23;;;-0.10;99.90;;;;;;4986406;28;20045;-62
2023/01/21 06:47:13;;;;;;;58.45;29.38;;;-0.70;99.90;;;;;;4988477;28;20038;-61
2023/01/21 06:49:39;;;;;;;57.17;28.63;;;0.00;99.90;;;;;;4987963;28;20471;-61
2023/01/21 06:52:05;;;;;;;58.70;29.20;;;-0.20;99.90;;;;;;4987746;28;20077;-62
2023/01/21 06:54:31;;;;;;;55.35;28.90;;;0.00;99.90;;;;;;4987796;28;20042;-62
2023/01/21 06:56:58;;;;;;;60.30;30.92;;;1.20;99.90;;;;;;4988273;28;20046;-62
2023/01/21 06:59:23;;;;;;;53.70;26.60;;;-0.50;99.90;;;;;;4988002;28;20050;-62
2023/01/21 07:01:49;;;;;;;57.10;30.35;;;-0.20;99.90;;;;;;4987058;28;20065;-62
2023/01/21 07:04:15;;;;;;;58.08;29.55;;;-0.20;99.90;;;;;;4988049;28;20048;-62
2023/01/21 07:06:40;;;;;;;56.22;30.40;;;-0.40;99.90;;;;;;4987608;28;20046;-62
2023/01/21 07:09:07;;;;;;;52.08;27.33;;;-0.60;99.90;;;;;;4986751;28;20050;-62
2023/01/21 07:11:33;;;;;;;55.10;28.45;;;-0.30;99.90;;;;;;4986672;28;20042;-62
2023/01/21 07:13:59;;;;;;;57.65;30.83;;;-0.40;99.90;;;;;;4986769;28;20410;-63
2023/01/21 07:16:24;;;;;;;53.53;28.40;;;0.10;99.90;;;;;;4985838;28;20133;-60
2023/01/21 07:18:50;;;;;;;55.00;29.33;;;-0.70;99.90;;;;;;4986416;28;20476;-62
2023/01/21 07:21:16;;;;;;;54.60;27.90;;;-0.40;99.90;;;;;;4986571;28;20049;-62
2023/01/21 07:23:42;;;;;;;58.22;29.55;;;1.30;99.90;;;;;;4986862;28;20050;-62
2023/01/21 07:26:08;;;;;;;59.45;30.10;;;-0.80;99.90;;;;;;4986046;28;20121;-62
2023/01/21 07:28:34;;;;;;;57.70;30.25;;;1.20;99.90;;;;;;4986288;28;20134;-62
2023/01/21 07:31:00;;;;;;;60.67;29.50;;;-0.30;99.90;;;;;;4985941;28;20050;-61
2023/01/21 07:33:26;;;;;;;58.20;29.88;;;-0.10;99.90;;;;;;4986829;28;20069;-62
2023/01/21 07:35:52;;;;;;;56.22;29.95;;;-0.10;99.90;;;;;;4984938;28;20051;-61
2023/01/21 07:38:18;;;;;;;54.80;28.63;;;-0.70;99.90;;;;;;4986121;28;20050;-62
2023/01/21 07:40:47;;;;;;;57.05;29.75;;;0.00;99.90;;;;;;4985898;28;20551;-62
2023/01/21 07:43:13;;;;;;;57.22;29.73;;;-0.10;99.90;;;;;;4986396;28;20065;-63
2023/01/21 07:45:38;;;;;;;57.70;30.45;;;-0.70;99.90;;;;;;4985611;28;20471;-62
2023/01/21 07:48:05;;;;;;;59.17;30.10;;;0.20;99.90;;;;;;4985802;28;20048;-61
2023/01/21 07:50:30;;;;;;;59.53;31.20;;;-0.40;99.90;;;;;;4986016;28;20537;-62
2023/01/21 07:52:58;;;;;;;59.97;31.35;;;-0.70;99.90;;;;;;4986094;28;20126;-62
2023/01/21 07:55:24;;;;;;;56.97;29.67;;;1.10;99.90;;;;;;4984958;28;20472;-62
2023/01/21 07:57:50;;;;;;;55.90;29.02;;;0.00;99.90;;;;;;4985630;28;20427;-62
2023/01/21 08:00:16;;;;;;;55.15;30.23;;;-0.30;99.90;;;;;;4985467;28;20035;-63
2023/01/21 08:02:42;;;;;;;59.83;30.23;;;0.10;99.90;;;;;;4986197;28;20061;-60
2023/01/21 08:05:08;;;;;;;58.33;31.05;;;0.10;99.90;;;;;;4985610;28;20110;-62
2023/01/21 08:07:34;;;;;;;58.05;30.30;;;-0.10;99.90;;;;;;4984645;28;20047;-61
2023/01/21 08:10:00;;;;;;;55.85;28.63;;;-0.60;99.90;;;;;;4985281;28;20072;-62
2023/01/21 08:12:26;;;;;;;55.28;29.08;;;0.30;99.90;;;;;;4989415;28;20136;-62
2023/01/21 08:14:51;;;;;;;59.97;30.63;;;-0.20;99.90;;;;;;4989073;28;20053;-62
2023/01/21 08:17:17;;;;;;;57.75;29.33;;;0.10;99.90;;;;;;4988390;28;20097;-63
2023/01/21 08:19:42;;;;;;;56.38;28.27;;;-0.10;99.90;;;;;;4989875;28;20047;-63
2023/01/21 08:22:08;;;;;;;57.28;28.85;;;0.00;99.90;;;;;;4989102;28;20046;-62
2023/01/21 08:24:34;;;;;;;54.67;29.77;;;-0.30;99.90;;;;;;4989924;28;20040;-61
2023/01/21 08:27:00;;;;;;;54.28;28.73;;;1.30;99.90;;;;;;4990310;28;20054;-62
2023/01/21 08:29:26;;;;;;;57.35;30.33;;;0.30;99.90;;;;;;4988349;28;20042;-62
2023/01/21 08:31:52;;;;;;;52.78;28.52;;;-0.10;99.90;;;;;;4989485;28;20573;-62
2023/01/21 08:34:18;;;;;;;54.20;29.95;;;0.30;99.90;;;;;;4989369;28;20138;-63
2023/01/21 08:36:44;;;;;;;56.58;28.90;;;0.50;99.90;;;;;;4988868;28;20129;-61
2023/01/21 08:39:12;;;;;;;52.78;28.23;;;0.40;99.90;;;;;;4989448;28;20038;-62
2023/01/21 08:41:39;;;;;;;58.10;30.73;;;1.10;99.90;;;;;;4989684;28;20050;-62
2023/01/21 08:44:06;;;;;;;56.30;29.55;;;-0.30;99.90;;;;;;4988866;28;20054;-57
2023/01/21 08:46:32;;;;;;;51.22;27.90;;;0.40;99.90;;;;;;4988833;28;20038;-63
2023/01/21 08:48:58;;;;;;;54.10;29.30;;;0.20;99.90;;;;;;4989423;28;20133;-63
2023/01/21 08:51:24;;;;;;;58.92;31.13;;;1.00;99.90;;;;;;4989005;28;20554;-62
2023/01/21 08:53:50;;;;;;;56.50;29.67;;;0.90;99.90;;;;;;4988744;28;20058;-61
2023/01/21 08:56:16;;;;;;;50.38;28.40;;;0.10;99.90;;;;;;4988903;28;20365;-62
2023/01/21 08:58:42;;;;;;;58.55;29.55;;;0.80;99.90;;;;;;4989241;28;20057;-62
2023/01/21 09:01:10;;;;;;;53.50;28.42;;;-0.30;99.90;;;;;;4987758;28;20034;-61
2023/01/21 09:03:36;;;;;;;56.15;28.13;;;0.70;99.90;;;;;;4989092;28;20125;-62
2023/01/21 09:06:03;;;;;;;52.42;29.95;;;0.00;99.90;;;;;;4989136;28;20125;-61
2023/01/21 09:08:30;;;;;;;51.47;28.50;;;0.50;99.90;;;;;;4988579;28;20042;-62
2023/01/21 09:11:00;;;;;;;51.63;28.73;;;-0.30;99.90;;;;;;4989157;28;20054;-62
2023/01/21 09:13:27;;;;;;;53.80;29.73;;;-0.30;99.90;;;;;;4988952;28;20046;-61
2023/01/21 09:15:53;;;;;;;54.67;30.33;;;-0.30;99.90;;;;;;4987657;28;20046;-62
2023/01/21 09:18:18;;;;;;;50.55;28.05;;;0.50;99.90;;;;;;4987324;28;20514;-61
2023/01/21 09:20:44;;;;;;;60.20;31.90;;;0.40;99.90;;;;;;4988827;28;20111;-60
2023/01/21 09:23:25;;;;;;;49.20;28.77;;;-0.10;99.90;;;;;;4987443;28;20054;-63
2023/01/21 09:26:11;;;;;;;50.53;28.75;;;0.40;99.90;;;;;;4981653;28;20119;-62
2023/01/21 09:28:38;;;;;;;54.03;31.40;;;0.40;99.90;;;;;;4967796;28;20094;-62
2023/01/21 09:31:06;;;;;;;53.17;29.55;;;1.20;99.90;;;;;;4976872;28;20125;-62
2023/01/21 09:33:35;;;;;;;53.47;30.38;;;1.90;99.90;;;;;;4987862;28;20034;-61
2023/01/21 09:36:03;;;;;;;49.85;30.67;;;0.30;99.90;;;;;;4987153;28;20069;-62
2023/01/21 09:38:29;;;;;;;53.17;30.90;;;0.80;99.90;;;;;;4987911;28;20050;-62
2023/01/21 09:41:19;;;;;;;52.95;32.17;;;1.60;99.90;;;;;;4987739;28;20133;-62
2023/01/21 09:43:56;;;;;;;53.75;31.60;;;1.20;99.90;;;;;;4987769;28;20050;-62
2023/01/21 09:46:57;;;;;;;52.67;30.77;;;0.50;99.90;;;;;;4985796;28;20047;-62
2023/01/21 09:49:45;;;;;;;50.10;30.65;;;1.30;99.90;;;;;;4965713;28;20450;-62
2023/01/21 09:52:22;;;;;;;50.05;30.17;;;0.80;99.90;;;;;;4980863;28;20058;-63
2023/01/21 09:54:48;;;;;;;54.65;32.63;;;0.60;99.90;;;;;;4987465;28;20046;-62
2023/01/21 09:57:18;;;;;;;53.58;32.80;;;1.00;99.90;;;;;;4987358;28;20046;-62
2023/01/21 09:59:55;;;;;;;52.22;32.03;;;2.00;99.90;;;;;;4986732;28;20395;-63
2023/01/21 10:02:38;;;;;;;54.90;33.00;;;2.20;99.90;;;;;;4987275;28;20141;-63
2023/01/21 10:05:27;;;;;;;53.92;33.08;;;1.30;99.90;;;;;;4987850;28;20042;-63
2023/01/21 10:08:11;;;;;;;52.58;31.65;;;2.20;99.90;;;;;;4986801;28;20050;-62
2023/01/21 10:10:50;;;;;;;58.13;34.13;;;1.50;99.90;;;;;;4987555;28;20061;-59
2023/01/21 10:13:43;;;;;;;50.78;31.27;;;2.30;99.90;;;;;;4986815;28;20042;-62
2023/01/21 10:16:43;;;;;;;51.10;33.45;;;2.00;99.90;;;;;;4975340;28;20093;-63
2023/01/21 10:19:21;;;;;;;50.78;31.83;;;2.90;99.90;;;;;;4985325;28;20058;-62
2023/01/21 10:22:02;;;;;;;52.25;32.63;;;2.10;99.90;;;;;;4986194;28;20100;-62
2023/01/21 10:24:34;;;;;;;50.08;32.45;;;2.10;99.90;;;;;;4988379;28;20064;-62
2023/01/21 10:27:00;;;;;;;47.15;30.33;;;1.40;99.90;;;;;;4986474;28;20048;-63
2023/01/21 10:29:26;;;;;;;49.88;30.92;;;2.10;99.90;;;;;;4984685;28;20046;-62
2023/01/21 10:32:03;;;;;;;51.10;32.60;;;2.70;99.90;;;;;;4987511;28;20092;-61
2023/01/21 10:34:31;;;;;;;46.40;31.17;;;1.60;99.90;;;;;;4986120;28;20512;-62
2023/01/21 10:37:12;;;;;;;47.53;30.45;;;1.90;99.90;;;;;;4985419;28;20082;-62
2023/01/21 10:39:42;;;;;;;49.42;31.63;;;1.60;99.90;;;;;;4985989;28;20038;-62
2023/01/21 10:42:25;;;;;;;45.35;30.75;;;2.10;99.90;;;;;;4980128;28;20064;-62
2023/01/21 10:45:16;;;;;;;47.70;30.65;;;2.00;99.90;;;;;;4985869;28;20042;-61
2023/01/21 10:47:55;;;;;;;44.10;29.27;;;2.00;99.90;;;;;;4985532;28;20077;-63
2023/01/21 10:50:24;;;;;;;42.15;29.02;;;2.50;99.90;;;;;;4986901;28;20469;-63
2023/01/21 10:53:03;;;;;;;41.92;28.38;;;2.40;99.90;;;;;;4987225;28;20504;-63
2023/01/21 10:55:48;;;;;;;40.30;27.55;;;2.20;99.90;;;;;;4987031;28;20054;-64
2023/01/21 10:58:36;;;;;;;40.13;28.70;;;2.70;99.90;;;;;;4986522;28;20133;-64
2023/01/21 11:01:06;;;;;;;36.63;26.98;;;2.90;99.90;;;;;;4985387;28;20054;-63
2023/01/21 11:03:44;;;;;;;36.95;27.33;;;2.70;99.90;;;;;;4986662;28;20054;-63
2023/01/21 11:06:15;;;;;;;35.00;26.38;;;3.80;99.90;;;;;;4985952;28;20086;-62
2023/01/21 11:08:44;;;;;;;32.97;24.58;;;3.90;99.90;;;;;;4986487;28;20034;-64
2023/01/21 11:11:11;;;;;;;33.75;25.15;;;4.10;99.90;;;;;;4987076;28;20169;-63
2023/01/21 11:13:36;;;;;;;31.58;24.30;;;4.10;99.90;;;;;;4986792;28;20400;-63
2023/01/21 11:16:03;;;;;;;31.92;23.73;;;3.90;99.90;;;;;;4985132;28;20097;-63
2023/01/21 11:18:29;;;;;;;30.48;22.48;;;3.80;99.90;;;;;;4986196;28;20050;-62
2023/01/21 11:21:19;;;;;;;29.98;21.52;;;4.10;99.90;;;;;;4985915;28;20049;-62
2023/01/21 11:23:59;;;;;;;28.20;21.50;;;3.90;99.90;;;;;;4986497;28;20049;-63
2023/01/21 11:26:33;;;;;;;26.08;20.80;;;3.70;99.90;;;;;;4986281;28;20384;-63
2023/01/21 11:29:11;;;;;;;26.27;21.08;;;4.40;99.90;;;;;;4985319;28;20049;-64
2023/01/21 11:31:37;;;;;;;27.60;20.83;;;4.80;99.90;;;;;;4985961;28;20090;-63
2023/01/21 11:34:20;;;;;;;29.63;22.58;;;5.50;99.90;;;;;;4986514;28;20038;-63
2023/01/21 11:37:03;;;;;;;29.25;22.15;;;6.50;99.90;;;;;;4985434;28;20046;-63
2023/01/21 11:39:32;;;;;;;25.27;20.65;;;6.70;99.90;;;;;;4985857;28;20043;-63
2023/01/21 11:42:05;;;;;;;26.65;19.85;;;6.30;99.90;;;;;;4986218;28;20256;-64
2023/01/21 11:44:32;;;;;;;22.67;18.88;;;6.20;99.90;;;;;;4985666;28;20227;-63
2023/01/21 11:46:58;;;;;;;23.70;18.50;;;5.80;99.90;;;;;;4985314;28;20046;-62
2023/01/21 11:49:28;;;;;;;25.48;19.65;;;5.70;99.90;;;;;;4985880;28;20354;-63
2023/01/21 11:52:15;;;;;;;22.73;17.92;;;5.60;99.90;;;;;;4986018;28;20414;-63
2023/01/21 11:54:41;;;;;;;20.60;16.15;;;6.20;99.90;;;;;;4971325;28;20130;-63
2023/01/21 11:57:20;;;;;;;19.48;14.80;;;6.90;99.90;;;;;;4967025;28;20133;-63
2023/01/21 11:59:47;;;;;;;18.13;13.80;;;7.30;99.90;;;;;;4969818;28;20403;-64
2023/01/21 12:02:21;;;;;;;15.38;13.13;;;7.80;99.90;;;;;;4985328;28;20050;-64
2023/01/21 12:04:55;;;;;;;15.38;12.38;;;8.20;99.90;;;;;;4987274;28;20055;-64
2023/01/21 12:07:30;;;;;;;13.82;11.38;;;7.90;99.90;;;;;;4987548;28;20408;-63
2023/01/21 12:10:11;;;;;;;15.65;12.10;;;7.70;99.90;;;;;;4987523;28;20443;-63
2023/01/21 12:12:46;;;;;;;14.85;11.65;;;7.20;99.90;;;;;;4987039;28;20047;-64
2023/01/21 12:15:38;;;;;;;14.52;10.85;;;6.80;99.90;;;;;;4986350;28;20042;-65
2023/01/21 12:18:28;;;;;;;13.68;10.85;;;6.50;99.90;;;;;;4986369;28;20092;-63
2023/01/21 12:21:26;;;;;;;13.55;11.18;;;6.30;99.90;;;;;;4986203;28;20138;-63
2023/01/21 12:24:07;;;;;;;12.82;10.63;;;6.30;99.90;;;;;;4984044;28;20054;-63
2023/01/21 12:26:55;;;;;;;13.27;10.68;;;6.00;99.90;;;;;;4986607;28;20053;-63
2023/01/21 12:29:21;;;;;;;11.57;9.50;;;5.90;99.90;;;;;;4985083;28;20049;-63
2023/01/21 12:32:03;;;;;;;12.40;10.15;;;6.00;99.90;;;;;;4987004;28;20475;-64
2023/01/21 12:35:01;;;;;;;11.48;9.98;;;5.80;99.90;;;;;;4986059;28;20081;-62
2023/01/21 12:37:53;;;;;;;11.15;9.43;;;6.10;99.90;;;;;;4986534;28;20046;-63
2023/01/21 12:40:44;;;;;;;11.73;9.38;;;6.50;99.90;;;;;;4985718;28;20093;-63
2023/01/21 12:43:19;;;;;;;11.88;9.38;;;6.70;99.90;;;;;;4987046;28;20050;-63
2023/01/21 12:45:52;;;;;;;12.82;9.52;;;7.10;99.90;;;;;;4985445;28;20415;-62
2023/01/21 12:48:27;;;;;;;10.23;8.60;;;7.00;99.90;;;;;;4986478;28;20105;-63
2023/01/21 12:50:56;;;;;;;;;;;7.30;99.90;;;;;;4986213;28;20415;-63
2023/01/21 12:53:45;;;;;;;11.40;8.57;;;7.00;99.90;;;;;;4986964;28;20384;-63
2023/01/21 12:56:21;;;;;;;9.35;8.27;;;6.70;99.90;;;;;;4985522;28;20476;-62